sensor_id;sensor_type;location;lat;lon;timestamp;P1;durP1;ratioP1;P2;durP2;ratioP2
27365;SDS011;14837;57.148;-2.144;2023-05-10T00:00:10;73.45;;;5.53;;
27365;SDS011;14837;57.148;-2.144;2023-05-10T00:02:36;47.15;;;4.28;;
27365;SDS011;14837;57.148;-2.144;2023-05-10T00:05:03;23.25;;;2.50;;
27365;SDS011;14837;57.148;-2.144;2023-05-10T00:07:30;21.98;;;3.58;;
27365;SDS011;14837;57.148;-2.144;2023-05-10T00:09:57;24.95;;;3.17;;
27365;SDS011;14837;57.148;-2.144;2023-05-10T00:12:23;29.80;;;3.30;;
27365;SDS011;14837;57.148;-2.144;2023-05-10T00:14:50;31.92;;;3.75;;
27365;SDS011;14837;57.148;-2.144;2023-05-10T00:17:16;15.75;;;2.63;;
27365;SDS011;14837;57.148;-2.144;2023-05-10T00:19:43;20.02;;;2.80;;
27365;SDS011;14837;57.148;-2.144;2023-05-10T00:22:09;36.38;;;3.63;;
27365;SDS011;14837;57.148;-2.144;2023-05-10T00:24:36;9.65;;;2.08;;
27365;SDS011;14837;57.148;-2.144;2023-05-10T00:27:03;15.07;;;2.30;;
27365;SDS011;14837;57.148;-2.144;2023-05-10T00:29:30;33.03;;;2.97;;
27365;SDS011;14837;57.148;-2.144;2023-05-10T00:31:57;16.38;;;2.00;;
27365;SDS011;14837;57.148;-2.144;2023-05-10T00:34:24;23.20;;;2.75;;
27365;SDS011;14837;57.148;-2.144;2023-05-10T00:36:51;28.17;;;2.70;;
27365;SDS011;14837;57.148;-2.144;2023-05-10T00:39:17;33.33;;;3.45;;
27365;SDS011;14837;57.148;-2.144;2023-05-10T00:41:44;25.33;;;3.20;;
27365;SDS011;14837;57.148;-2.144;2023-05-10T00:44:11;26.15;;;2.95;;
27365;SDS011;14837;57.148;-2.144;2023-05-10T00:46:37;33.45;;;4.10;;
27365;SDS011;14837;57.148;-2.144;2023-05-10T00:49:04;7.70;;;2.88;;
27365;SDS011;14837;57.148;-2.144;2023-05-10T00:51:30;14.05;;;3.30;;
27365;SDS011;14837;57.148;-2.144;2023-05-10T00:53:57;49.28;;;6.05;;
27365;SDS011;14837;57.148;-2.144;2023-05-10T00:56:25;44.72;;;5.80;;
27365;SDS011;14837;57.148;-2.144;2023-05-10T00:58:51;50.75;;;6.95;;
27365;SDS011;14837;57.148;-2.144;2023-05-10T01:01:18;20.88;;;3.83;;
27365;SDS011;14837;57.148;-2.144;2023-05-10T01:03:45;67.50;;;7.57;;
27365;SDS011;14837;57.148;-2.144;2023-05-10T01:06:13;21.30;;;4.35;;
27365;SDS011;14837;57.148;-2.144;2023-05-10T01:08:39;14.82;;;4.90;;
27365;SDS011;14837;57.148;-2.144;2023-05-10T01:11:07;9.52;;;4.47;;
27365;SDS011;14837;57.148;-2.144;2023-05-10T01:13:34;20.80;;;4.85;;
27365;SDS011;14837;57.148;-2.144;2023-05-10T01:16:02;18.08;;;4.75;;
27365;SDS011;14837;57.148;-2.144;2023-05-10T01:18:30;7.78;;;3.53;;
27365;SDS011;14837;57.148;-2.144;2023-05-10T01:21:47;29.95;;;5.97;;
27365;SDS011;14837;57.148;-2.144;2023-05-10T01:33:59;58.28;;;7.03;;
27365;SDS011;14837;57.148;-2.144;2023-05-10T01:36:31;10.00;;;5.65;;
27365;SDS011;14837;57.148;-2.144;2023-05-10T01:46:53;30.92;;;5.03;;
27365;SDS011;14837;57.148;-2.144;2023-05-10T01:49:26;38.72;;;5.28;;
27365;SDS011;14837;57.148;-2.144;2023-05-10T01:51:57;28.27;;;4.75;;
27365;SDS011;14837;57.148;-2.144;2023-05-10T01:54:25;74.72;;;7.40;;
27365;SDS011;14837;57.148;-2.144;2023-05-10T01:57:01;8.70;;;3.40;;
27365;SDS011;14837;57.148;-2.144;2023-05-10T01:59:30;26.55;;;4.28;;
27365;SDS011;14837;57.148;-2.144;2023-05-10T02:01:58;30.33;;;4.82;;
27365;SDS011;14837;57.148;-2.144;2023-05-10T02:04:26;57.33;;;6.25;;
27365;SDS011;14837;57.148;-2.144;2023-05-10T02:06:53;33.15;;;5.97;;
27365;SDS011;14837;57.148;-2.144;2023-05-10T02:09:20;59.97;;;7.70;;
27365;SDS011;14837;57.148;-2.144;2023-05-10T02:11:48;12.18;;;5.38;;
27365;SDS011;14837;57.148;-2.144;2023-05-10T02:14:15;13.43;;;3.92;;
27365;SDS011;14837;57.148;-2.144;2023-05-10T02:16:42;49.08;;;6.53;;
27365;SDS011;14837;57.148;-2.144;2023-05-10T02:19:09;31.67;;;5.72;;
27365;SDS011;14837;57.148;-2.144;2023-05-10T02:21:37;45.55;;;6.25;;
27365;SDS011;14837;57.148;-2.144;2023-05-10T02:24:04;60.75;;;8.00;;
27365;SDS011;14837;57.148;-2.144;2023-05-10T02:26:31;14.93;;;4.07;;
27365;SDS011;14837;57.148;-2.144;2023-05-10T02:28:59;31.05;;;6.28;;
27365;SDS011;14837;57.148;-2.144;2023-05-10T02:31:32;52.35;;;6.05;;
27365;SDS011;14837;57.148;-2.144;2023-05-10T02:33:59;35.20;;;5.60;;
27365;SDS011;14837;57.148;-2.144;2023-05-10T02:36:27;69.05;;;7.88;;
27365;SDS011;14837;57.148;-2.144;2023-05-10T02:38:54;40.28;;;5.63;;
27365;SDS011;14837;57.148;-2.144;2023-05-10T02:41:21;54.30;;;6.10;;
27365;SDS011;14837;57.148;-2.144;2023-05-10T02:43:50;108.13;;;9.80;;
27365;SDS011;14837;57.148;-2.144;2023-05-10T02:46:17;70.38;;;7.25;;
27365;SDS011;14837;57.148;-2.144;2023-05-10T02:48:44;62.03;;;7.40;;
27365;SDS011;14837;57.148;-2.144;2023-05-10T02:51:11;41.35;;;6.00;;
27365;SDS011;14837;57.148;-2.144;2023-05-10T02:53:38;19.40;;;5.60;;
27365;SDS011;14837;57.148;-2.144;2023-05-10T02:56:28;36.50;;;6.72;;
27365;SDS011;14837;57.148;-2.144;2023-05-10T02:58:55;25.52;;;5.78;;
27365;SDS011;14837;57.148;-2.144;2023-05-10T03:01:21;38.90;;;6.63;;
27365;SDS011;14837;57.148;-2.144;2023-05-10T03:03:48;53.50;;;7.78;;
27365;SDS011;14837;57.148;-2.144;2023-05-10T03:06:15;38.80;;;7.05;;
27365;SDS011;14837;57.148;-2.144;2023-05-10T03:08:43;35.45;;;5.35;;
27365;SDS011;14837;57.148;-2.144;2023-05-10T03:13:54;40.35;;;6.40;;
27365;SDS011;14837;57.148;-2.144;2023-05-10T03:16:25;25.10;;;6.75;;
27365;SDS011;14837;57.148;-2.144;2023-05-10T03:18:54;30.65;;;6.10;;
27365;SDS011;14837;57.148;-2.144;2023-05-10T03:21:22;28.98;;;5.70;;
27365;SDS011;14837;57.148;-2.144;2023-05-10T03:23:58;70.75;;;8.75;;
27365;SDS011;14837;57.148;-2.144;2023-05-10T03:26:26;22.77;;;6.93;;
27365;SDS011;14837;57.148;-2.144;2023-05-10T03:28:53;29.42;;;7.00;;
27365;SDS011;14837;57.148;-2.144;2023-05-10T03:31:20;42.50;;;7.10;;
27365;SDS011;14837;57.148;-2.144;2023-05-10T03:33:47;37.63;;;7.53;;
27365;SDS011;14837;57.148;-2.144;2023-05-10T03:36:14;66.88;;;8.48;;
27365;SDS011;14837;57.148;-2.144;2023-05-10T03:38:41;51.33;;;8.45;;
27365;SDS011;14837;57.148;-2.144;2023-05-10T03:41:08;30.67;;;7.80;;
27365;SDS011;14837;57.148;-2.144;2023-05-10T03:43:34;32.72;;;7.80;;
27365;SDS011;14837;57.148;-2.144;2023-05-10T03:46:01;35.80;;;7.07;;
27365;SDS011;14837;57.148;-2.144;2023-05-10T03:48:28;35.50;;;7.00;;
27365;SDS011;14837;57.148;-2.144;2023-05-10T03:50:54;22.88;;;6.18;;
27365;SDS011;14837;57.148;-2.144;2023-05-10T03:53:21;49.15;;;9.43;;
27365;SDS011;14837;57.148;-2.144;2023-05-10T03:55:49;41.33;;;8.05;;
27365;SDS011;14837;57.148;-2.144;2023-05-10T03:58:15;16.05;;;5.68;;
27365;SDS011;14837;57.148;-2.144;2023-05-10T04:00:42;14.88;;;4.93;;
27365;SDS011;14837;57.148;-2.144;2023-05-10T04:03:11;19.35;;;4.68;;
27365;SDS011;14837;57.148;-2.144;2023-05-10T04:05:38;18.95;;;6.93;;
27365;SDS011;14837;57.148;-2.144;2023-05-10T04:08:05;29.40;;;6.00;;
27365;SDS011;14837;57.148;-2.144;2023-05-10T04:10:32;24.70;;;6.18;;
27365;SDS011;14837;57.148;-2.144;2023-05-10T04:12:58;15.20;;;4.63;;
27365;SDS011;14837;57.148;-2.144;2023-05-10T04:15:25;20.75;;;5.45;;
27365;SDS011;14837;57.148;-2.144;2023-05-10T04:17:52;28.42;;;5.63;;
27365;SDS011;14837;57.148;-2.144;2023-05-10T04:20:20;15.13;;;5.63;;
27365;SDS011;14837;57.148;-2.144;2023-05-10T04:22:46;23.98;;;6.25;;
27365;SDS011;14837;57.148;-2.144;2023-05-10T04:25:13;20.42;;;6.15;;
27365;SDS011;14837;57.148;-2.144;2023-05-10T04:27:39;26.25;;;6.45;;
27365;SDS011;14837;57.148;-2.144;2023-05-10T04:30:06;32.65;;;6.63;;
27365;SDS011;14837;57.148;-2.144;2023-05-10T04:32:33;12.98;;;4.72;;
27365;SDS011;14837;57.148;-2.144;2023-05-10T04:34:59;16.48;;;5.57;;
27365;SDS011;14837;57.148;-2.144;2023-05-10T04:37:26;16.70;;;5.95;;
27365;SDS011;14837;57.148;-2.144;2023-05-10T04:39:52;11.57;;;4.32;;
27365;SDS011;14837;57.148;-2.144;2023-05-10T04:42:19;22.65;;;4.90;;
27365;SDS011;14837;57.148;-2.144;2023-05-10T04:44:45;32.45;;;4.68;;
27365;SDS011;14837;57.148;-2.144;2023-05-10T04:47:12;18.02;;;4.30;;
27365;SDS011;14837;57.148;-2.144;2023-05-10T04:49:39;23.42;;;4.60;;
27365;SDS011;14837;57.148;-2.144;2023-05-10T04:52:05;10.40;;;3.08;;
27365;SDS011;14837;57.148;-2.144;2023-05-10T04:54:32;12.82;;;2.40;;
27365;SDS011;14837;57.148;-2.144;2023-05-10T04:56:59;17.13;;;3.15;;
27365;SDS011;14837;57.148;-2.144;2023-05-10T04:59:25;17.15;;;3.22;;
27365;SDS011;14837;57.148;-2.144;2023-05-10T05:01:52;21.35;;;3.63;;
27365;SDS011;14837;57.148;-2.144;2023-05-10T05:04:19;6.25;;;2.67;;
27365;SDS011;14837;57.148;-2.144;2023-05-10T05:06:45;4.97;;;2.67;;
27365;SDS011;14837;57.148;-2.144;2023-05-10T05:09:12;10.55;;;3.08;;
27365;SDS011;14837;57.148;-2.144;2023-05-10T05:11:38;11.73;;;2.15;;
27365;SDS011;14837;57.148;-2.144;2023-05-10T05:14:06;7.90;;;2.40;;
27365;SDS011;14837;57.148;-2.144;2023-05-10T05:16:33;11.25;;;2.10;;
27365;SDS011;14837;57.148;-2.144;2023-05-10T05:18:59;15.20;;;3.35;;
27365;SDS011;14837;57.148;-2.144;2023-05-10T05:21:26;9.50;;;1.92;;
27365;SDS011;14837;57.148;-2.144;2023-05-10T05:23:53;3.03;;;1.80;;
27365;SDS011;14837;57.148;-2.144;2023-05-10T05:26:19;6.40;;;2.08;;
27365;SDS011;14837;57.148;-2.144;2023-05-10T05:28:46;3.88;;;1.98;;
27365;SDS011;14837;57.148;-2.144;2023-05-10T05:31:14;7.13;;;2.58;;
27365;SDS011;14837;57.148;-2.144;2023-05-10T05:33:41;3.65;;;1.58;;
27365;SDS011;14837;57.148;-2.144;2023-05-10T05:36:07;7.35;;;2.08;;
27365;SDS011;14837;57.148;-2.144;2023-05-10T05:38:34;9.20;;;2.33;;
27365;SDS011;14837;57.148;-2.144;2023-05-10T05:41:01;5.43;;;2.35;;
27365;SDS011;14837;57.148;-2.144;2023-05-10T05:43:27;7.60;;;2.30;;
27365;SDS011;14837;57.148;-2.144;2023-05-10T05:45:54;7.53;;;3.00;;
27365;SDS011;14837;57.148;-2.144;2023-05-10T05:48:21;7.05;;;2.58;;
27365;SDS011;14837;57.148;-2.144;2023-05-10T05:50:47;10.07;;;2.80;;
27365;SDS011;14837;57.148;-2.144;2023-05-10T05:53:14;15.23;;;3.15;;
27365;SDS011;14837;57.148;-2.144;2023-05-10T05:55:50;14.07;;;3.58;;
27365;SDS011;14837;57.148;-2.144;2023-05-10T05:58:16;8.30;;;3.30;;
27365;SDS011;14837;57.148;-2.144;2023-05-10T06:00:43;12.35;;;2.92;;
27365;SDS011;14837;57.148;-2.144;2023-05-10T06:03:09;11.63;;;3.55;;
27365;SDS011;14837;57.148;-2.144;2023-05-10T06:05:36;14.00;;;3.60;;
27365;SDS011;14837;57.148;-2.144;2023-05-10T06:08:03;7.75;;;3.13;;
27365;SDS011;14837;57.148;-2.144;2023-05-10T06:10:30;7.32;;;3.75;;
27365;SDS011;14837;57.148;-2.144;2023-05-10T06:12:56;15.18;;;4.20;;
27365;SDS011;14837;57.148;-2.144;2023-05-10T06:15:23;5.57;;;3.63;;
27365;SDS011;14837;57.148;-2.144;2023-05-10T06:17:49;6.38;;;3.58;;
27365;SDS011;14837;57.148;-2.144;2023-05-10T06:20:16;8.35;;;4.10;;
27365;SDS011;14837;57.148;-2.144;2023-05-10T06:22:43;18.65;;;5.68;;
27365;SDS011;14837;57.148;-2.144;2023-05-10T06:25:10;15.68;;;5.30;;
27365;SDS011;14837;57.148;-2.144;2023-05-10T06:27:36;10.32;;;4.00;;
27365;SDS011;14837;57.148;-2.144;2023-05-10T06:30:03;18.70;;;5.00;;
27365;SDS011;14837;57.148;-2.144;2023-05-10T06:32:38;16.20;;;5.00;;
27365;SDS011;14837;57.148;-2.144;2023-05-10T06:35:05;5.90;;;3.55;;
27365;SDS011;14837;57.148;-2.144;2023-05-10T06:37:32;14.50;;;4.63;;
27365;SDS011;14837;57.148;-2.144;2023-05-10T06:39:58;10.68;;;3.83;;
27365;SDS011;14837;57.148;-2.144;2023-05-10T06:42:25;7.22;;;4.80;;
27365;SDS011;14837;57.148;-2.144;2023-05-10T06:44:52;7.35;;;3.70;;
27365;SDS011;14837;57.148;-2.144;2023-05-10T06:47:18;11.45;;;4.35;;
27365;SDS011;14837;57.148;-2.144;2023-05-10T06:49:45;12.20;;;4.60;;
27365;SDS011;14837;57.148;-2.144;2023-05-10T06:52:11;10.48;;;4.30;;
27365;SDS011;14837;57.148;-2.144;2023-05-10T06:54:38;5.97;;;4.10;;
27365;SDS011;14837;57.148;-2.144;2023-05-10T06:57:05;9.52;;;4.57;;
27365;SDS011;14837;57.148;-2.144;2023-05-10T06:59:48;4.88;;;3.45;;
27365;SDS011;14837;57.148;-2.144;2023-05-10T07:02:15;8.30;;;4.05;;
27365;SDS011;14837;57.148;-2.144;2023-05-10T07:04:42;8.20;;;3.88;;
27365;SDS011;14837;57.148;-2.144;2023-05-10T07:07:08;10.02;;;4.60;;
27365;SDS011;14837;57.148;-2.144;2023-05-10T07:09:35;5.32;;;3.33;;
27365;SDS011;14837;57.148;-2.144;2023-05-10T07:12:01;15.45;;;4.60;;
27365;SDS011;14837;57.148;-2.144;2023-05-10T07:14:28;16.33;;;4.53;;
27365;SDS011;14837;57.148;-2.144;2023-05-10T07:16:55;13.52;;;4.53;;
27365;SDS011;14837;57.148;-2.144;2023-05-10T07:19:21;6.18;;;3.58;;
27365;SDS011;14837;57.148;-2.144;2023-05-10T07:21:48;13.68;;;4.00;;
27365;SDS011;14837;57.148;-2.144;2023-05-10T07:24:15;5.35;;;4.10;;
27365;SDS011;14837;57.148;-2.144;2023-05-10T07:26:41;6.15;;;3.83;;
27365;SDS011;14837;57.148;-2.144;2023-05-10T07:29:08;7.97;;;3.95;;
27365;SDS011;14837;57.148;-2.144;2023-05-10T07:31:35;16.77;;;4.65;;
27365;SDS011;14837;57.148;-2.144;2023-05-10T07:34:01;6.57;;;4.15;;
27365;SDS011;14837;57.148;-2.144;2023-05-10T07:36:28;6.30;;;4.28;;
27365;SDS011;14837;57.148;-2.144;2023-05-10T07:38:55;6.25;;;4.00;;
27365;SDS011;14837;57.148;-2.144;2023-05-10T07:41:23;9.30;;;4.03;;
27365;SDS011;14837;57.148;-2.144;2023-05-10T07:43:50;6.40;;;3.58;;
27365;SDS011;14837;57.148;-2.144;2023-05-10T07:46:16;9.60;;;4.32;;
27365;SDS011;14837;57.148;-2.144;2023-05-10T07:48:43;6.68;;;3.85;;
27365;SDS011;14837;57.148;-2.144;2023-05-10T07:51:09;15.60;;;4.40;;
27365;SDS011;14837;57.148;-2.144;2023-05-10T07:53:37;7.35;;;3.65;;
27365;SDS011;14837;57.148;-2.144;2023-05-10T07:56:19;4.55;;;3.55;;
27365;SDS011;14837;57.148;-2.144;2023-05-10T07:58:47;10.20;;;4.00;;
27365;SDS011;14837;57.148;-2.144;2023-05-10T08:01:13;10.20;;;3.85;;
27365;SDS011;14837;57.148;-2.144;2023-05-10T08:03:40;4.68;;;3.15;;
27365;SDS011;14837;57.148;-2.144;2023-05-10T08:06:06;7.40;;;3.15;;
27365;SDS011;14837;57.148;-2.144;2023-05-10T08:08:33;7.43;;;3.65;;
27365;SDS011;14837;57.148;-2.144;2023-05-10T08:10:59;5.93;;;3.28;;
27365;SDS011;14837;57.148;-2.144;2023-05-10T08:13:26;5.35;;;3.05;;
27365;SDS011;14837;57.148;-2.144;2023-05-10T08:15:53;6.30;;;3.70;;
27365;SDS011;14837;57.148;-2.144;2023-05-10T08:18:19;7.90;;;3.75;;
27365;SDS011;14837;57.148;-2.144;2023-05-10T08:20:47;4.25;;;3.70;;
27365;SDS011;14837;57.148;-2.144;2023-05-10T08:23:13;5.00;;;3.63;;
27365;SDS011;14837;57.148;-2.144;2023-05-10T08:25:40;12.15;;;3.45;;
27365;SDS011;14837;57.148;-2.144;2023-05-10T08:28:07;4.70;;;3.28;;
27365;SDS011;14837;57.148;-2.144;2023-05-10T08:30:36;7.72;;;4.07;;
27365;SDS011;14837;57.148;-2.144;2023-05-10T08:33:03;4.63;;;3.50;;
27365;SDS011;14837;57.148;-2.144;2023-05-10T08:35:29;4.65;;;4.03;;
27365;SDS011;14837;57.148;-2.144;2023-05-10T08:37:56;4.55;;;3.50;;
27365;SDS011;14837;57.148;-2.144;2023-05-10T08:40:22;5.57;;;4.10;;
27365;SDS011;14837;57.148;-2.144;2023-05-10T08:42:51;4.47;;;3.33;;
27365;SDS011;14837;57.148;-2.144;2023-05-10T08:45:21;4.22;;;3.83;;
27365;SDS011;14837;57.148;-2.144;2023-05-10T08:47:49;5.95;;;4.03;;
27365;SDS011;14837;57.148;-2.144;2023-05-10T08:50:17;5.18;;;4.13;;
27365;SDS011;14837;57.148;-2.144;2023-05-10T08:52:45;4.70;;;4.30;;
27365;SDS011;14837;57.148;-2.144;2023-05-10T08:55:15;4.97;;;3.50;;
27365;SDS011;14837;57.148;-2.144;2023-05-10T08:57:42;5.18;;;4.40;;
27365;SDS011;14837;57.148;-2.144;2023-05-10T09:00:09;5.57;;;3.45;;
27365;SDS011;14837;57.148;-2.144;2023-05-10T09:02:36;9.77;;;4.60;;
27365;SDS011;14837;57.148;-2.144;2023-05-10T09:05:03;3.85;;;3.08;;
27365;SDS011;14837;57.148;-2.144;2023-05-10T09:07:31;8.10;;;4.90;;
27365;SDS011;14837;57.148;-2.144;2023-05-10T09:10:00;5.65;;;3.63;;
27365;SDS011;14837;57.148;-2.144;2023-05-10T09:12:27;5.90;;;3.63;;
27365;SDS011;14837;57.148;-2.144;2023-05-10T09:14:53;6.25;;;3.83;;
27365;SDS011;14837;57.148;-2.144;2023-05-10T09:17:21;4.47;;;4.00;;
27365;SDS011;14837;57.148;-2.144;2023-05-10T09:19:49;4.45;;;3.97;;
27365;SDS011;14837;57.148;-2.144;2023-05-10T09:22:15;4.35;;;2.95;;
27365;SDS011;14837;57.148;-2.144;2023-05-10T09:24:42;5.00;;;4.00;;
27365;SDS011;14837;57.148;-2.144;2023-05-10T09:27:11;8.00;;;4.07;;
27365;SDS011;14837;57.148;-2.144;2023-05-10T09:29:43;4.40;;;3.78;;
27365;SDS011;14837;57.148;-2.144;2023-05-10T09:32:10;3.58;;;2.90;;
27365;SDS011;14837;57.148;-2.144;2023-05-10T09:34:39;4.75;;;3.38;;
27365;SDS011;14837;57.148;-2.144;2023-05-10T09:37:07;5.15;;;3.47;;
27365;SDS011;14837;57.148;-2.144;2023-05-10T09:39:35;4.68;;;3.38;;
27365;SDS011;14837;57.148;-2.144;2023-05-10T09:42:06;3.80;;;3.40;;
27365;SDS011;14837;57.148;-2.144;2023-05-10T09:44:33;3.90;;;2.72;;
27365;SDS011;14837;57.148;-2.144;2023-05-10T09:47:03;5.47;;;3.40;;
27365;SDS011;14837;57.148;-2.144;2023-05-10T09:49:30;4.07;;;2.80;;
27365;SDS011;14837;57.148;-2.144;2023-05-10T09:52:00;4.75;;;3.45;;
27365;SDS011;14837;57.148;-2.144;2023-05-10T09:54:27;3.75;;;2.97;;
27365;SDS011;14837;57.148;-2.144;2023-05-10T09:56:53;5.43;;;3.15;;
27365;SDS011;14837;57.148;-2.144;2023-05-10T09:59:20;4.07;;;3.60;;
27365;SDS011;14837;57.148;-2.144;2023-05-10T10:01:50;3.63;;;2.97;;
27365;SDS011;14837;57.148;-2.144;2023-05-10T10:04:17;3.65;;;3.33;;
27365;SDS011;14837;57.148;-2.144;2023-05-10T10:06:45;4.55;;;3.92;;
27365;SDS011;14837;57.148;-2.144;2023-05-10T10:09:11;5.70;;;4.40;;
27365;SDS011;14837;57.148;-2.144;2023-05-10T10:11:38;4.47;;;3.60;;
27365;SDS011;14837;57.148;-2.144;2023-05-10T10:14:05;6.47;;;3.70;;
27365;SDS011;14837;57.148;-2.144;2023-05-10T10:16:32;4.20;;;3.80;;
27365;SDS011;14837;57.148;-2.144;2023-05-10T10:18:59;5.18;;;4.68;;
27365;SDS011;14837;57.148;-2.144;2023-05-10T10:21:26;3.80;;;3.05;;
27365;SDS011;14837;57.148;-2.144;2023-05-10T10:23:53;4.50;;;4.03;;
27365;SDS011;14837;57.148;-2.144;2023-05-10T10:26:20;6.50;;;4.78;;
27365;SDS011;14837;57.148;-2.144;2023-05-10T10:34:26;4.85;;;3.38;;
27365;SDS011;14837;57.148;-2.144;2023-05-10T10:36:55;6.10;;;3.95;;
27365;SDS011;14837;57.148;-2.144;2023-05-10T10:39:23;7.10;;;4.18;;
27365;SDS011;14837;57.148;-2.144;2023-05-10T10:41:52;4.75;;;3.60;;
27365;SDS011;14837;57.148;-2.144;2023-05-10T10:46:58;4.30;;;3.70;;
27365;SDS011;14837;57.148;-2.144;2023-05-10T10:49:25;3.30;;;3.00;;
27365;SDS011;14837;57.148;-2.144;2023-05-10T10:54:37;4.28;;;3.25;;
27365;SDS011;14837;57.148;-2.144;2023-05-10T10:57:11;6.68;;;3.55;;
27365;SDS011;14837;57.148;-2.144;2023-05-10T10:59:42;4.65;;;3.22;;
27365;SDS011;14837;57.148;-2.144;2023-05-10T11:02:34;3.72;;;2.83;;
27365;SDS011;14837;57.148;-2.144;2023-05-10T11:04:59;4.22;;;3.53;;
27365;SDS011;14837;57.148;-2.144;2023-05-10T11:07:27;4.57;;;3.78;;
27365;SDS011;14837;57.148;-2.144;2023-05-10T11:09:53;5.07;;;2.85;;
27365;SDS011;14837;57.148;-2.144;2023-05-10T11:12:20;7.18;;;3.45;;
27365;SDS011;14837;57.148;-2.144;2023-05-10T11:14:50;4.07;;;3.17;;
27365;SDS011;14837;57.148;-2.144;2023-05-10T11:17:29;4.85;;;3.33;;
27365;SDS011;14837;57.148;-2.144;2023-05-10T11:20:09;3.38;;;3.08;;
27365;SDS011;14837;57.148;-2.144;2023-05-10T11:25:31;4.43;;;3.03;;
27365;SDS011;14837;57.148;-2.144;2023-05-10T11:27:58;4.05;;;3.53;;
27365;SDS011;14837;57.148;-2.144;2023-05-10T11:30:28;4.38;;;3.97;;
27365;SDS011;14837;57.148;-2.144;2023-05-10T11:32:55;5.30;;;4.03;;
27365;SDS011;14837;57.148;-2.144;2023-05-10T11:35:22;4.55;;;3.40;;
27365;SDS011;14837;57.148;-2.144;2023-05-10T11:37:48;3.47;;;2.85;;
27365;SDS011;14837;57.148;-2.144;2023-05-10T11:40:15;4.28;;;3.20;;
27365;SDS011;14837;57.148;-2.144;2023-05-10T11:42:42;5.00;;;4.00;;
27365;SDS011;14837;57.148;-2.144;2023-05-10T11:45:08;7.50;;;3.97;;
27365;SDS011;14837;57.148;-2.144;2023-05-10T11:47:35;4.35;;;3.67;;
27365;SDS011;14837;57.148;-2.144;2023-05-10T11:50:03;5.03;;;3.70;;
27365;SDS011;14837;57.148;-2.144;2023-05-10T11:52:34;5.47;;;3.80;;
27365;SDS011;14837;57.148;-2.144;2023-05-10T11:55:01;3.90;;;3.50;;
27365;SDS011;14837;57.148;-2.144;2023-05-10T11:57:28;4.22;;;3.47;;
27365;SDS011;14837;57.148;-2.144;2023-05-10T11:59:56;5.40;;;4.50;;
27365;SDS011;14837;57.148;-2.144;2023-05-10T12:02:23;6.65;;;5.07;;
27365;SDS011;14837;57.148;-2.144;2023-05-10T12:04:50;7.55;;;4.68;;
27365;SDS011;14837;57.148;-2.144;2023-05-10T12:07:17;6.78;;;5.07;;
27365;SDS011;14837;57.148;-2.144;2023-05-10T12:09:44;6.80;;;4.57;;
27365;SDS011;14837;57.148;-2.144;2023-05-10T12:12:17;6.97;;;5.20;;
27365;SDS011;14837;57.148;-2.144;2023-05-10T12:14:43;6.88;;;5.40;;
27365;SDS011;14837;57.148;-2.144;2023-05-10T12:17:13;10.02;;;6.40;;
27365;SDS011;14837;57.148;-2.144;2023-05-10T12:19:40;6.70;;;5.45;;
27365;SDS011;14837;57.148;-2.144;2023-05-10T12:22:07;6.32;;;5.47;;
27365;SDS011;14837;57.148;-2.144;2023-05-10T12:24:34;7.10;;;5.50;;
27365;SDS011;14837;57.148;-2.144;2023-05-10T12:27:04;8.48;;;4.68;;
27365;SDS011;14837;57.148;-2.144;2023-05-10T12:29:31;6.50;;;5.43;;
27365;SDS011;14837;57.148;-2.144;2023-05-10T12:31:58;6.55;;;5.43;;
27365;SDS011;14837;57.148;-2.144;2023-05-10T12:34:35;8.15;;;7.03;;
27365;SDS011;14837;57.148;-2.144;2023-05-10T12:37:02;9.45;;;6.05;;
27365;SDS011;14837;57.148;-2.144;2023-05-10T12:39:44;8.43;;;6.40;;
27365;SDS011;14837;57.148;-2.144;2023-05-10T12:42:12;5.85;;;5.28;;
27365;SDS011;14837;57.148;-2.144;2023-05-10T12:44:39;6.15;;;5.35;;
27365;SDS011;14837;57.148;-2.144;2023-05-10T12:47:06;8.88;;;6.53;;
27365;SDS011;14837;57.148;-2.144;2023-05-10T12:49:32;5.88;;;5.28;;
27365;SDS011;14837;57.148;-2.144;2023-05-10T12:52:00;7.22;;;5.72;;
27365;SDS011;14837;57.148;-2.144;2023-05-10T12:54:26;8.43;;;5.57;;
27365;SDS011;14837;57.148;-2.144;2023-05-10T12:56:54;6.60;;;5.80;;
27365;SDS011;14837;57.148;-2.144;2023-05-10T12:59:20;7.68;;;5.55;;
27365;SDS011;14837;57.148;-2.144;2023-05-10T13:01:47;7.22;;;5.30;;
27365;SDS011;14837;57.148;-2.144;2023-05-10T13:04:13;13.63;;;7.05;;
27365;SDS011;14837;57.148;-2.144;2023-05-10T13:06:40;7.95;;;6.15;;
27365;SDS011;14837;57.148;-2.144;2023-05-10T13:09:06;9.70;;;6.13;;
27365;SDS011;14837;57.148;-2.144;2023-05-10T13:11:33;11.18;;;6.38;;
27365;SDS011;14837;57.148;-2.144;2023-05-10T13:13:59;9.63;;;6.53;;
27365;SDS011;14837;57.148;-2.144;2023-05-10T13:16:26;8.45;;;6.15;;
27365;SDS011;14837;57.148;-2.144;2023-05-10T13:18:53;8.15;;;5.90;;
27365;SDS011;14837;57.148;-2.144;2023-05-10T13:21:19;9.23;;;6.40;;
27365;SDS011;14837;57.148;-2.144;2023-05-10T13:23:46;8.60;;;6.72;;
27365;SDS011;14837;57.148;-2.144;2023-05-10T13:26:13;9.93;;;6.78;;
27365;SDS011;14837;57.148;-2.144;2023-05-10T13:28:39;11.45;;;6.60;;
27365;SDS011;14837;57.148;-2.144;2023-05-10T13:31:07;8.60;;;5.35;;
27365;SDS011;14837;57.148;-2.144;2023-05-10T13:33:33;11.00;;;5.88;;
27365;SDS011;14837;57.148;-2.144;2023-05-10T13:36:00;6.93;;;5.97;;
27365;SDS011;14837;57.148;-2.144;2023-05-10T13:38:26;10.38;;;6.43;;
27365;SDS011;14837;57.148;-2.144;2023-05-10T13:40:53;7.60;;;5.43;;
27365;SDS011;14837;57.148;-2.144;2023-05-10T13:43:19;9.93;;;6.05;;
27365;SDS011;14837;57.148;-2.144;2023-05-10T13:45:46;8.27;;;5.20;;
27365;SDS011;14837;57.148;-2.144;2023-05-10T13:48:12;11.50;;;5.15;;
27365;SDS011;14837;57.148;-2.144;2023-05-10T13:50:39;8.23;;;5.93;;
27365;SDS011;14837;57.148;-2.144;2023-05-10T13:53:06;8.48;;;5.20;;
27365;SDS011;14837;57.148;-2.144;2023-05-10T13:55:32;8.93;;;5.35;;
27365;SDS011;14837;57.148;-2.144;2023-05-10T13:57:59;7.45;;;4.88;;
27365;SDS011;14837;57.148;-2.144;2023-05-10T14:00:26;8.13;;;5.68;;
27365;SDS011;14837;57.148;-2.144;2023-05-10T14:02:53;11.60;;;5.25;;
27365;SDS011;14837;57.148;-2.144;2023-05-10T14:05:20;7.35;;;4.80;;
27365;SDS011;14837;57.148;-2.144;2023-05-10T14:07:51;8.85;;;5.03;;
27365;SDS011;14837;57.148;-2.144;2023-05-10T14:10:17;9.40;;;5.00;;
27365;SDS011;14837;57.148;-2.144;2023-05-10T14:12:44;9.02;;;5.32;;
27365;SDS011;14837;57.148;-2.144;2023-05-10T14:15:11;7.47;;;4.72;;
27365;SDS011;14837;57.148;-2.144;2023-05-10T14:17:37;6.07;;;4.40;;
27365;SDS011;14837;57.148;-2.144;2023-05-10T14:20:04;7.82;;;5.25;;
27365;SDS011;14837;57.148;-2.144;2023-05-10T14:22:31;9.00;;;5.05;;
27365;SDS011;14837;57.148;-2.144;2023-05-10T14:24:57;7.97;;;5.47;;
27365;SDS011;14837;57.148;-2.144;2023-05-10T14:27:24;8.25;;;5.10;;
27365;SDS011;14837;57.148;-2.144;2023-05-10T14:29:51;7.82;;;4.90;;
27365;SDS011;14837;57.148;-2.144;2023-05-10T14:32:17;11.77;;;4.82;;
27365;SDS011;14837;57.148;-2.144;2023-05-10T14:34:44;5.28;;;3.92;;
27365;SDS011;14837;57.148;-2.144;2023-05-10T14:37:11;5.47;;;4.15;;
27365;SDS011;14837;57.148;-2.144;2023-05-10T14:39:37;4.10;;;3.50;;
27365;SDS011;14837;57.148;-2.144;2023-05-10T14:42:04;4.63;;;2.42;;
27365;SDS011;14837;57.148;-2.144;2023-05-10T14:44:31;4.68;;;2.88;;
27365;SDS011;14837;57.148;-2.144;2023-05-10T14:46:57;6.00;;;2.58;;
27365;SDS011;14837;57.148;-2.144;2023-05-10T14:49:24;5.00;;;2.78;;
27365;SDS011;14837;57.148;-2.144;2023-05-10T14:51:52;4.25;;;2.60;;
27365;SDS011;14837;57.148;-2.144;2023-05-10T14:54:19;4.90;;;2.47;;
27365;SDS011;14837;57.148;-2.144;2023-05-10T14:56:45;5.75;;;2.55;;
27365;SDS011;14837;57.148;-2.144;2023-05-10T14:59:12;6.40;;;2.22;;
27365;SDS011;14837;57.148;-2.144;2023-05-10T15:01:39;4.50;;;2.45;;
27365;SDS011;14837;57.148;-2.144;2023-05-10T15:04:08;3.65;;;2.28;;